Terminal Aerodrome Forecast
Issued by NWS Charleston, WV

Current Version | Previous Version | Text Only | Print | Product List | Glossary Off
Versions: 1 2 3 4 5 6 7 8 9 10 11 12 13 14 15 16 17 18 19 20 21 22 23 24 25 26

000
FTUS41 KRLX 261746
TAFPKB
TAF
KPKB 261746Z 2618/2718 VRB03KT P6SM VCTS SCT030 BKN045CB
     FM262200 VRB04KT 5SM TSRA BKN030CB BKN045
     FM270100 VRB02KT 6SM BR VCSH SCT030 BKN050
     FM270300 00000KT 5SM BR BKN070
     FM270600 00000KT 2SM BR SCT003 BKN080
     FM271300 00000KT 6SM BR SCT040 BKN080
     FM271600 27004KT P6SM VCTS BKN040CB=

USA.gov is the U.S. government's official web portal to all federal, state and local government web resources and services.